createdAt,value
2022-11-24T00:01:18.399Z,8.10
2022-11-24T00:03:46.712Z,8.10
2022-11-24T00:06:15.796Z,8.10
2022-11-24T00:08:44.840Z,8.20
2022-11-24T00:11:20.247Z,8.20
2022-11-24T00:13:47.433Z,8.20
2022-11-24T00:16:17.134Z,8.20
2022-11-24T00:18:45.814Z,8.20
2022-11-24T00:21:14.242Z,8.20
2022-11-24T00:23:41.186Z,8.10
2022-11-24T00:26:16.800Z,8.10
2022-11-24T00:28:45.287Z,8.10
2022-11-24T00:31:20.872Z,8.10
2022-11-24T00:33:50.133Z,8.10
2022-11-24T00:36:18.525Z,8.10
2022-11-24T00:38:45.972Z,8.10
2022-11-24T00:41:13.236Z,8.10
2022-11-24T00:43:40.259Z,8.10
2022-11-24T00:46:07.140Z,8.10
2022-11-24T00:48:34.232Z,8.00
2022-11-24T00:51:06.620Z,8.00
2022-11-24T00:53:33.775Z,8.00
2022-11-24T00:56:00.746Z,8.00
2022-11-24T00:58:27.519Z,8.00
2022-11-24T01:00:54.497Z,7.90
2022-11-24T01:03:22.693Z,8.00
2022-11-24T01:05:49.443Z,7.90
2022-11-24T01:08:16.363Z,7.90
2022-11-24T01:10:43.125Z,7.90
2022-11-24T01:13:10.201Z,7.80
2022-11-24T01:15:37.079Z,7.90
2022-11-24T01:18:05.322Z,7.80
2022-11-24T01:20:32.727Z,7.90
2022-11-24T01:22:59.519Z,7.80
2022-11-24T01:25:26.430Z,7.80
2022-11-24T01:27:53.381Z,7.80
2022-11-24T01:30:22.036Z,7.80
2022-11-24T01:32:48.954Z,7.80
2022-11-24T01:35:15.727Z,7.70
2022-11-24T01:37:42.511Z,7.70
2022-11-24T01:40:10.124Z,7.70
2022-11-24T01:42:42.901Z,7.70
2022-11-24T01:45:35.700Z,7.70
2022-11-24T01:48:05.446Z,7.70
2022-11-24T01:50:33.766Z,7.70
2022-11-24T01:53:00.611Z,7.70
2022-11-24T01:55:31.938Z,7.80
2022-11-24T01:58:09.877Z,7.80
2022-11-24T02:00:38.670Z,7.80
2022-11-24T02:03:06.637Z,7.80
2022-11-24T02:05:44.543Z,7.80
2022-11-24T02:08:45.251Z,7.90
2022-11-24T02:11:12.046Z,7.90
2022-11-24T02:13:41.265Z,7.90
2022-11-24T02:16:11.444Z,8.00
2022-11-24T02:18:40.343Z,8.00
2022-11-24T02:21:07.958Z,8.00
2022-11-24T02:23:59.712Z,8.00
2022-11-24T02:26:26.558Z,8.10
2022-11-24T02:28:53.499Z,8.20
2022-11-24T02:31:20.420Z,8.20
2022-11-24T02:33:48.707Z,8.20
2022-11-24T02:36:15.876Z,8.20
2022-11-24T02:38:42.591Z,8.20
2022-11-24T02:41:14.824Z,8.20
2022-11-24T02:43:46.889Z,8.20
2022-11-24T02:46:13.688Z,8.20
2022-11-24T02:48:40.586Z,8.20
2022-11-24T02:51:07.521Z,8.20
2022-11-24T02:53:34.454Z,8.20
2022-11-24T02:56:01.494Z,8.20
2022-11-24T02:58:28.270Z,8.20
2022-11-24T03:00:55.337Z,8.20
2022-11-24T03:03:22.302Z,8.20
2022-11-24T03:05:49.426Z,8.20
2022-11-24T03:08:16.711Z,8.20
2022-11-24T03:10:43.649Z,8.20
2022-11-24T03:13:10.709Z,8.30
2022-11-24T03:15:38.126Z,8.30
2022-11-24T03:18:05.213Z,8.30
2022-11-24T03:20:32.390Z,8.30
2022-11-24T03:22:59.186Z,8.30
2022-11-24T03:25:26.222Z,8.30
2022-11-24T03:27:55.478Z,8.40
2022-11-24T03:30:22.249Z,8.30
2022-11-24T03:32:51.709Z,8.30
2022-11-24T03:35:18.631Z,8.30
2022-11-24T03:37:45.521Z,8.30
2022-11-24T03:40:12.639Z,8.30
2022-11-24T03:42:40.394Z,8.30
2022-11-24T03:45:44.786Z,8.30
2022-11-24T03:47:54.969Z,8.30
2022-11-24T03:50:21.715Z,8.30
2022-11-24T03:52:48.455Z,8.30
2022-11-24T03:55:15.290Z,8.30
2022-11-24T03:57:42.063Z,8.30
2022-11-24T04:00:09.816Z,8.30
2022-11-24T04:02:37.212Z,8.30
2022-11-24T04:05:04.893Z,8.30
2022-11-24T04:07:31.669Z,8.30
2022-11-24T04:09:58.548Z,8.30
2022-11-24T04:12:44.020Z,8.30
2022-11-24T04:15:19.245Z,8.30
2022-11-24T04:17:47.147Z,8.30
2022-11-24T04:20:14.029Z,8.30
2022-11-24T04:22:41.013Z,8.30
2022-11-24T04:25:09.098Z,8.30
2022-11-24T04:27:37.184Z,8.30
2022-11-24T04:30:07.671Z,8.30
2022-11-24T04:32:34.734Z,8.30
2022-11-24T04:35:01.450Z,8.30
2022-11-24T04:37:28.160Z,8.20
2022-11-24T04:39:55.284Z,8.20
2022-11-24T04:42:22.202Z,8.20
2022-11-24T04:44:48.926Z,8.20
2022-11-24T04:47:18.494Z,8.30
2022-11-24T04:49:46.930Z,8.20
2022-11-24T04:52:13.643Z,8.30
2022-11-24T04:54:40.474Z,8.20
2022-11-24T04:57:07.494Z,8.30
2022-11-24T04:59:34.191Z,8.20
2022-11-24T05:02:01.065Z,8.20
2022-11-24T05:04:27.849Z,8.20
2022-11-24T05:06:54.586Z,8.20
2022-11-24T05:09:21.289Z,8.20
2022-11-24T05:11:50.363Z,8.20
2022-11-24T05:14:17.229Z,8.20
2022-11-24T05:16:43.967Z,8.20
2022-11-24T05:19:10.796Z,8.20
2022-11-24T05:21:37.504Z,8.10
2022-11-24T05:24:04.682Z,8.20
2022-11-24T05:26:31.483Z,8.20
2022-11-24T05:28:58.381Z,8.20
2022-11-24T05:31:25.165Z,8.20
2022-11-24T05:33:52.491Z,8.20
2022-11-24T05:36:38.081Z,8.20
2022-11-24T05:39:04.858Z,8.10
2022-11-24T05:41:31.710Z,8.10
2022-11-24T05:43:58.478Z,8.10
2022-11-24T05:46:25.236Z,8.10
2022-11-24T05:48:51.943Z,8.10
2022-11-24T05:51:18.690Z,8.00
2022-11-24T05:53:45.535Z,8.00
2022-11-24T05:56:12.322Z,8.00
2022-11-24T05:58:39.151Z,8.00
2022-11-24T06:01:09.881Z,7.90
2022-11-24T06:03:36.608Z,7.90
2022-11-24T06:06:03.964Z,8.00
2022-11-24T06:08:31.613Z,7.90
2022-11-24T06:11:22.638Z,7.90
2022-11-24T06:13:49.654Z,7.90
2022-11-24T06:16:17.444Z,7.90
2022-11-24T06:18:44.340Z,7.90
2022-11-24T06:21:12.022Z,7.90
2022-11-24T06:23:39.757Z,7.90
2022-11-24T06:26:07.065Z,7.90
2022-11-24T06:28:36.489Z,7.90
2022-11-24T06:31:04.255Z,7.90
2022-11-24T06:33:36.029Z,7.90
2022-11-24T06:36:04.727Z,7.90
2022-11-24T06:38:31.861Z,7.90
2022-11-24T06:41:03.603Z,7.90
2022-11-24T06:43:30.821Z,7.90
2022-11-24T06:45:58.368Z,7.90
2022-11-24T06:48:26.376Z,7.90
2022-11-24T06:50:54.067Z,7.90
2022-11-24T06:53:20.790Z,7.90
2022-11-24T06:55:47.945Z,7.90
2022-11-24T06:58:14.651Z,7.90
2022-11-24T07:00:41.792Z,7.90
2022-11-24T07:03:15.480Z,7.90
2022-11-24T07:05:43.801Z,7.90
2022-11-24T07:08:14.682Z,7.90
2022-11-24T07:10:44.478Z,7.90
2022-11-24T07:13:11.347Z,7.80
2022-11-24T07:15:38.173Z,7.80
2022-11-24T07:18:05.175Z,7.80
2022-11-24T07:20:31.926Z,7.80
2022-11-24T07:22:59.003Z,7.80
2022-11-24T07:25:26.019Z,7.80
2022-11-24T07:27:57.645Z,7.80
2022-11-24T07:30:25.414Z,7.80
2022-11-24T07:32:52.740Z,7.80
2022-11-24T07:35:19.462Z,7.80
2022-11-24T07:37:46.373Z,7.80
2022-11-24T07:40:13.190Z,7.80
2022-11-24T07:42:39.907Z,7.80
2022-11-24T07:45:07.235Z,7.80
2022-11-24T07:47:33.969Z,7.80
2022-11-24T07:50:00.604Z,7.80
2022-11-24T07:52:27.222Z,7.80
2022-11-24T07:54:53.908Z,7.80
2022-11-24T07:57:20.530Z,7.80
2022-11-24T07:59:47.186Z,7.80
2022-11-24T08:02:14.398Z,7.80
2022-11-24T08:04:41.090Z,7.80
2022-11-24T08:07:07.851Z,7.80
2022-11-24T08:09:34.538Z,7.80
2022-11-24T08:12:01.619Z,7.80
2022-11-24T08:14:28.526Z,7.80
2022-11-24T08:16:55.478Z,7.80
2022-11-24T08:19:22.600Z,7.80
2022-11-24T08:21:49.382Z,7.80
2022-11-24T08:24:16.926Z,7.80
2022-11-24T08:26:43.699Z,7.80
2022-11-24T08:29:10.557Z,7.80
2022-11-24T08:31:38.938Z,7.80
2022-11-24T08:34:06.534Z,7.80
2022-11-24T08:36:34.062Z,7.80
2022-11-24T08:39:01.494Z,7.80
2022-11-24T08:41:29.431Z,7.80
2022-11-24T08:43:56.314Z,7.80
2022-11-24T08:46:24.005Z,7.90
2022-11-24T08:48:53.658Z,7.90
2022-11-24T08:51:23.690Z,7.90
2022-11-24T08:53:58.383Z,7.90
2022-11-24T08:56:27.195Z,7.90
2022-11-24T08:58:54.799Z,7.90
2022-11-24T09:01:22.761Z,7.90
2022-11-24T09:03:51.411Z,8.00
2022-11-24T09:06:24.769Z,8.00
2022-11-24T09:08:53.881Z,8.00
2022-11-24T09:11:23.523Z,8.00
2022-11-24T09:13:50.771Z,8.10
2022-11-24T09:16:20.055Z,8.10
2022-11-24T09:18:47.686Z,8.10
2022-11-24T09:21:19.755Z,8.10
2022-11-24T09:23:49.126Z,8.20
2022-11-24T09:26:17.495Z,8.10
2022-11-24T09:28:46.031Z,8.20
2022-11-24T09:31:15.048Z,8.20
2022-11-24T09:33:42.521Z,8.20
2022-11-24T09:36:09.669Z,8.30
2022-11-24T09:38:36.609Z,8.30
2022-11-24T09:41:37.567Z,8.40
2022-11-24T09:44:13.693Z,8.40
2022-11-24T09:46:51.635Z,8.50
2022-11-24T09:49:27.509Z,8.50
2022-11-24T09:51:56.297Z,8.60
2022-11-24T09:54:30.143Z,8.60
2022-11-24T09:57:01.110Z,8.70
2022-11-24T09:59:28.930Z,8.70
2022-11-24T10:01:56.772Z,8.80
2022-11-24T10:04:39.444Z,8.80
2022-11-24T10:07:24.293Z,8.90
2022-11-24T10:09:53.964Z,8.90
2022-11-24T10:12:55.007Z,9.00
2022-11-24T10:15:36.972Z,9.00
2022-11-24T10:18:22.263Z,9.10
2022-11-24T10:21:05.276Z,9.10
2022-11-24T10:23:50.778Z,9.20
2022-11-24T10:26:36.037Z,9.20
2022-11-24T10:29:26.080Z,9.30
2022-11-24T10:31:56.493Z,9.40
2022-11-24T10:34:40.460Z,9.50
2022-11-24T10:37:30.314Z,9.70
2022-11-24T10:40:40.504Z,10.20
2022-11-24T10:43:01.187Z,10.30
2022-11-24T10:45:29.032Z,10.30
2022-11-24T10:47:57.762Z,10.40
2022-11-24T10:50:27.211Z,10.60
2022-11-24T10:53:21.018Z,11.10
2022-11-24T10:55:56.883Z,11.90
2022-11-24T10:58:38.470Z,12.60
2022-11-24T11:01:14.310Z,13.20
2022-11-24T11:03:55.837Z,13.70
2022-11-24T11:06:31.263Z,14.10
2022-11-24T11:09:07.121Z,14.40
2022-11-24T11:11:35.310Z,14.60
2022-11-24T11:14:04.991Z,14.70
2022-11-24T11:16:43.465Z,14.60
2022-11-24T11:19:50.628Z,14.40
2022-11-24T11:22:26.675Z,14.30
2022-11-24T11:25:11.523Z,13.90
2022-11-24T11:27:40.034Z,13.60
2022-11-24T11:36:11.709Z,13.10
2022-11-24T11:38:40.229Z,13.00
2022-11-24T11:41:15.971Z,12.90
2022-11-24T11:43:45.698Z,12.90
2022-11-24T11:46:15.584Z,12.90
2022-11-24T11:48:46.439Z,12.90
2022-11-24T11:51:26.913Z,12.80
2022-11-24T11:54:17.390Z,12.80
2022-11-24T11:56:45.743Z,12.80
2022-11-24T11:59:44.838Z,12.70
2022-11-24T12:02:20.882Z,12.70
2022-11-24T12:04:56.818Z,12.80
2022-11-24T12:07:42.700Z,12.90
2022-11-24T12:10:33.542Z,13.00
2022-11-24T12:13:38.143Z,12.90
2022-11-24T12:16:16.906Z,12.90
2022-11-24T12:19:02.404Z,13.10
2022-11-24T12:21:47.397Z,13.00
2022-11-24T12:24:21.476Z,12.90
2022-11-24T12:27:03.202Z,12.80
2022-11-24T12:29:45.123Z,12.70
2022-11-24T12:32:32.031Z,12.70
2022-11-24T12:35:24.687Z,12.90
2022-11-24T12:38:10.510Z,13.00
2022-11-24T12:44:03.218Z,12.70
2022-11-24T12:46:47.870Z,12.70
2022-11-24T12:49:33.652Z,12.70
2022-11-24T12:52:06.596Z,12.50
2022-11-24T12:54:40.472Z,12.50
2022-11-24T12:57:17.726Z,12.40
2022-11-24T12:59:58.307Z,12.40
2022-11-24T13:02:56.423Z,12.50
2022-11-24T13:05:31.880Z,12.60
2022-11-24T13:08:02.507Z,12.60
2022-11-24T13:10:54.074Z,12.70
2022-11-24T13:13:17.811Z,12.70
2022-11-24T13:16:20.630Z,12.80
2022-11-24T13:18:53.605Z,12.90
2022-11-24T13:21:51.893Z,12.90
2022-11-24T13:24:19.885Z,12.80
2022-11-24T13:27:15.433Z,12.70
2022-11-24T13:29:47.411Z,12.60
2022-11-24T13:32:20.261Z,12.40
2022-11-24T13:34:54.761Z,12.20
2022-11-24T13:37:34.948Z,12.20
2022-11-24T13:40:14.221Z,12.20
2022-11-24T13:43:01.265Z,12.10
2022-11-24T13:45:41.091Z,12.10
2022-11-24T13:48:20.640Z,12.10
2022-11-24T13:50:51.112Z,12.10
2022-11-24T13:53:47.495Z,12.10
2022-11-24T13:56:14.265Z,12.10
2022-11-24T13:58:45.008Z,12.00
2022-11-24T14:01:28.531Z,12.10
2022-11-24T14:04:31.021Z,12.00
2022-11-24T14:09:52.029Z,12.00
2022-11-24T14:12:23.001Z,12.00
2022-11-24T14:14:52.166Z,11.90
2022-11-24T14:17:24.055Z,11.90
2022-11-24T14:19:53.567Z,11.90
2022-11-24T14:22:41.255Z,11.80
2022-11-24T14:25:22.781Z,11.80
2022-11-24T14:27:50.002Z,11.70
2022-11-24T14:30:20.563Z,11.70
2022-11-24T14:32:58.044Z,11.60
2022-11-24T14:35:26.421Z,11.60
2022-11-24T14:37:53.390Z,11.50
2022-11-24T14:40:39.259Z,11.50
2022-11-24T14:43:15.272Z,11.50
2022-11-24T14:46:07.245Z,11.40
2022-11-24T14:48:51.743Z,11.40
2022-11-24T14:51:23.282Z,11.30
2022-11-24T14:53:53.611Z,11.30
2022-11-24T14:56:39.544Z,11.20
2022-11-24T14:59:23.884Z,11.20
2022-11-24T15:01:50.700Z,11.10
2022-11-24T15:07:21.660Z,11.00
2022-11-24T15:09:50.529Z,11.00
2022-11-24T15:12:31.664Z,10.90
2022-11-24T15:15:07.195Z,10.90
2022-11-24T15:17:34.253Z,10.80
2022-11-24T15:20:10.739Z,10.80
2022-11-24T15:22:40.454Z,10.70
2022-11-24T15:25:33.779Z,10.60
2022-11-24T15:28:01.113Z,10.50
2022-11-24T15:30:28.393Z,10.50
2022-11-24T15:32:57.527Z,10.40
2022-11-24T15:35:26.791Z,10.40
2022-11-24T15:37:53.681Z,10.40
2022-11-24T15:40:20.728Z,10.30
2022-11-24T15:42:52.953Z,10.30
2022-11-24T15:45:21.238Z,10.30
2022-11-24T15:47:48.212Z,10.20
2022-11-24T15:50:15.517Z,10.20
2022-11-24T15:52:42.992Z,10.10
2022-11-24T15:55:18.274Z,10.10
2022-11-24T15:57:45.395Z,10.00
2022-11-24T16:00:20.460Z,10.00
2022-11-24T16:02:47.265Z,10.00
2022-11-24T16:05:15.109Z,10.00
2022-11-24T16:07:42.428Z,9.90
2022-11-24T16:10:25.954Z,9.90
2022-11-24T16:12:52.641Z,9.90
2022-11-24T16:15:19.565Z,9.90
2022-11-24T16:17:46.844Z,9.90
2022-11-24T16:20:13.967Z,9.80
2022-11-24T16:22:40.654Z,9.80
2022-11-24T16:25:07.883Z,9.80
2022-11-24T16:27:34.759Z,9.80
2022-11-24T16:30:01.715Z,9.70
2022-11-24T16:32:28.493Z,9.70
2022-11-24T16:34:55.189Z,9.70
2022-11-24T16:37:22.095Z,9.70
2022-11-24T16:39:50.303Z,9.70
2022-11-24T16:42:17.285Z,9.70
2022-11-24T16:44:44.121Z,9.60
2022-11-24T16:47:12.934Z,9.60
2022-11-24T16:49:39.770Z,9.60
2022-11-24T16:52:06.727Z,9.60
2022-11-24T16:54:33.790Z,9.60
2022-11-24T16:57:00.690Z,9.50
2022-11-24T16:59:27.427Z,9.50
2022-11-24T17:01:54.522Z,9.40
2022-11-24T17:04:21.311Z,9.40
2022-11-24T17:06:48.154Z,9.40
2022-11-24T17:09:14.940Z,9.40
2022-11-24T17:11:41.673Z,9.40
2022-11-24T17:14:09.947Z,9.40
2022-11-24T17:16:37.719Z,9.40
2022-11-24T17:19:05.540Z,9.40
2022-11-24T17:21:32.887Z,9.40
2022-11-24T17:24:02.539Z,9.40
2022-11-24T17:26:29.235Z,9.40
2022-11-24T17:28:56.388Z,9.40
2022-11-24T17:31:37.088Z,9.30
2022-11-24T17:34:05.727Z,9.40
2022-11-24T17:36:34.220Z,9.40
2022-11-24T17:39:04.718Z,9.30
2022-11-24T17:41:32.634Z,9.30
2022-11-24T17:43:59.750Z,9.30
2022-11-24T17:46:28.304Z,9.30
2022-11-24T17:48:55.663Z,9.30
2022-11-24T17:51:24.157Z,9.20
2022-11-24T17:53:52.397Z,9.20
2022-11-24T17:56:23.401Z,9.20
2022-11-24T17:58:58.829Z,9.20
2022-11-24T18:01:28.349Z,9.20
2022-11-24T18:03:55.058Z,9.10
2022-11-24T18:06:25.076Z,9.10
2022-11-24T18:08:53.054Z,9.20
2022-11-24T18:11:32.204Z,9.10
2022-11-24T18:14:02.307Z,9.10
2022-11-24T18:16:31.304Z,9.10
2022-11-24T18:19:08.430Z,9.10
2022-11-24T18:21:37.233Z,9.10
2022-11-24T18:24:04.336Z,9.20
2022-11-24T18:26:31.044Z,9.10
2022-11-24T18:28:57.677Z,9.10
2022-11-24T18:31:24.486Z,9.10
2022-11-24T18:33:51.326Z,9.10
2022-11-24T18:36:23.564Z,9.10
2022-11-24T18:38:56.923Z,9.10
2022-11-24T18:41:23.660Z,9.00
2022-11-24T18:43:50.533Z,9.10
2022-11-24T18:46:18.251Z,9.00
2022-11-24T18:48:45.842Z,9.00
2022-11-24T18:51:16.328Z,9.00
2022-11-24T18:53:44.816Z,9.00
2022-11-24T18:56:18.154Z,8.90
2022-11-24T18:58:45.149Z,8.90
2022-11-24T19:01:14.813Z,8.90
2022-11-24T19:03:48.960Z,8.90
2022-11-24T19:06:21.354Z,8.80
2022-11-24T19:08:48.877Z,8.80
2022-11-24T19:11:24.154Z,8.80
2022-11-24T19:13:51.377Z,8.80
2022-11-24T19:16:20.121Z,8.80
2022-11-24T19:18:53.625Z,8.80
2022-11-24T19:21:21.281Z,8.80
2022-11-24T19:23:49.036Z,8.70
2022-11-24T19:26:16.238Z,8.80
2022-11-24T19:28:44.075Z,8.70
2022-11-24T19:31:13.265Z,8.70
2022-11-24T19:33:40.555Z,8.70
2022-11-24T19:36:19.486Z,8.70
2022-11-24T19:38:54.473Z,8.70
2022-11-24T19:41:23.855Z,8.70
2022-11-24T19:43:53.354Z,8.70
2022-11-24T19:46:22.375Z,8.70
2022-11-24T19:48:51.230Z,8.60
2022-11-24T19:51:21.995Z,8.60
2022-11-24T19:53:48.893Z,8.60
2022-11-24T19:56:22.334Z,8.60
2022-11-24T19:58:50.288Z,8.60
2022-11-24T20:01:20.101Z,8.50
2022-11-24T20:03:49.428Z,8.50
2022-11-24T20:06:16.720Z,8.50
2022-11-24T20:08:43.721Z,8.50
2022-11-24T20:11:15.573Z,8.50
2022-11-24T20:13:43.854Z,8.50
2022-11-24T20:16:13.415Z,8.50
2022-11-24T20:18:43.744Z,8.40
2022-11-24T20:21:13.408Z,8.40
2022-11-24T20:23:40.727Z,8.40
2022-11-24T20:26:10.754Z,8.40
2022-11-24T20:28:38.053Z,8.40
2022-11-24T20:31:10.129Z,8.40
2022-11-24T20:33:37.318Z,8.40
2022-11-24T20:36:12.411Z,8.50
2022-11-24T20:38:40.410Z,8.50
2022-11-24T20:41:25.209Z,8.50
2022-11-24T20:43:53.498Z,8.50
2022-11-24T20:46:25.649Z,8.50
2022-11-24T20:48:54.331Z,8.50
2022-11-24T20:51:26.177Z,8.50
2022-11-24T20:53:58.494Z,8.50
2022-11-24T20:56:28.050Z,8.50
2022-11-24T20:58:55.891Z,8.60
2022-11-24T21:01:25.219Z,8.50
2022-11-24T21:03:55.404Z,8.50
2022-11-24T21:06:22.485Z,8.60
2022-11-24T21:08:50.597Z,8.60
2022-11-24T21:11:19.610Z,8.60
2022-11-24T21:13:48.794Z,8.60
2022-11-24T21:16:22.053Z,8.60
2022-11-24T21:18:53.352Z,8.60
2022-11-24T21:21:21.253Z,8.60
2022-11-24T21:23:48.705Z,8.60
2022-11-24T21:26:17.357Z,8.70
2022-11-24T21:28:45.841Z,8.70
2022-11-24T21:31:16.058Z,8.70
2022-11-24T21:33:48.101Z,8.70
2022-11-24T21:36:17.800Z,8.60
2022-11-24T21:38:44.497Z,8.60
2022-11-24T21:41:13.974Z,8.60
2022-11-24T21:43:40.882Z,8.60
2022-11-24T21:46:10.560Z,8.60
2022-11-24T21:48:38.486Z,8.60
2022-11-24T21:51:07.756Z,8.60
2022-11-24T21:53:36.389Z,8.50
2022-11-24T21:56:05.973Z,8.50
2022-11-24T21:58:33.798Z,8.50
2022-11-24T22:01:05.763Z,8.50
2022-11-24T22:03:32.555Z,8.50
2022-11-24T22:06:00.241Z,8.40
2022-11-24T22:08:28.711Z,8.50
2022-11-24T22:11:04.490Z,8.50
2022-11-24T22:13:31.798Z,8.50
2022-11-24T22:16:06.638Z,8.50
2022-11-24T22:18:35.266Z,8.50
2022-11-24T22:21:02.820Z,8.50
2022-11-24T22:23:30.764Z,8.50
2022-11-24T22:26:05.669Z,8.50
2022-11-24T22:28:33.878Z,8.50
2022-11-24T22:31:07.800Z,8.50
2022-11-24T22:33:34.769Z,8.50
2022-11-24T22:36:02.223Z,8.50
2022-11-24T22:38:30.093Z,8.50
2022-11-24T22:41:05.245Z,8.50
2022-11-24T22:43:34.324Z,8.60
2022-11-24T22:46:29.112Z,8.60
2022-11-24T22:48:59.626Z,8.60
2022-11-24T22:51:29.130Z,8.60
2022-11-24T22:53:58.589Z,8.60
2022-11-24T22:56:27.976Z,8.60
2022-11-24T22:58:54.850Z,8.60
2022-11-24T23:01:23.613Z,8.60
2022-11-24T23:03:53.772Z,8.60
2022-11-24T23:06:23.491Z,8.70
2022-11-24T23:08:51.077Z,8.60
2022-11-24T23:11:20.442Z,8.70
2022-11-24T23:13:47.811Z,8.60
2022-11-24T23:16:16.718Z,8.60
2022-11-24T23:18:47.794Z,8.60
2022-11-24T23:21:22.661Z,8.60
2022-11-24T23:23:49.958Z,8.70
2022-11-24T23:26:25.459Z,8.60
2022-11-24T23:28:52.480Z,8.70
2022-11-24T23:31:22.215Z,8.60
2022-11-24T23:33:48.866Z,8.60
2022-11-24T23:36:20.273Z,8.60
2022-11-24T23:38:48.460Z,8.60
2022-11-24T23:41:18.628Z,8.60
2022-11-24T23:43:45.352Z,8.60
2022-11-24T23:46:15.401Z,8.60
2022-11-24T23:48:42.862Z,8.60
2022-11-24T23:51:29.694Z,8.50
2022-11-24T23:53:57.289Z,8.50
2022-11-24T23:56:26.956Z,8.50
2022-11-24T23:58:53.725Z,8.50
